sensor_id;sensor_type;location;lat;lon;timestamp;pressure;altitude;pressure_sealevel;temperature;humidity
76024;BME280;64719;52.124;6.226;2022-12-15T00:02:21;100754.53;;;-7.01;100.00
76024;BME280;64719;52.124;6.226;2022-12-15T00:05:05;100754.41;;;-6.99;100.00
76024;BME280;64719;52.124;6.226;2022-12-15T00:07:49;100755.25;;;-7.21;100.00
76024;BME280;64719;52.124;6.226;2022-12-15T00:10:33;100755.13;;;-7.19;100.00
76024;BME280;64719;52.124;6.226;2022-12-15T00:13:18;100754.69;;;-7.35;100.00
76024;BME280;64719;52.124;6.226;2022-12-15T00:16:03;100748.81;;;-7.39;100.00
76024;BME280;64719;52.124;6.226;2022-12-15T00:18:48;100760.06;;;-7.48;100.00
76024;BME280;64719;52.124;6.226;2022-12-15T00:21:32;100759.00;;;-7.56;100.00
76024;BME280;64719;52.124;6.226;2022-12-15T00:24:16;100773.31;;;-7.61;100.00
76024;BME280;64719;52.124;6.226;2022-12-15T00:27:00;100784.47;;;-7.57;100.00
76024;BME280;64719;52.124;6.226;2022-12-15T00:29:45;100778.84;;;-7.30;100.00
76024;BME280;64719;52.124;6.226;2022-12-15T00:32:29;100773.09;;;-7.24;100.00
76024;BME280;64719;52.124;6.226;2022-12-15T00:35:13;100773.13;;;-7.35;100.00
76024;BME280;64719;52.124;6.226;2022-12-15T00:37:58;100768.78;;;-7.36;100.00
76024;BME280;64719;52.124;6.226;2022-12-15T00:40:49;100768.91;;;-7.38;100.00
76024;BME280;64719;52.124;6.226;2022-12-15T00:43:16;100770.25;;;-7.32;100.00
76024;BME280;64719;52.124;6.226;2022-12-15T00:45:44;100770.22;;;-7.21;100.00
76024;BME280;64719;52.124;6.226;2022-12-15T00:48:28;100768.66;;;-7.13;100.00
76024;BME280;64719;52.124;6.226;2022-12-15T00:50:55;100778.59;;;-7.16;100.00
76024;BME280;64719;52.124;6.226;2022-12-15T00:53:22;100780.53;;;-7.18;100.00
76024;BME280;64719;52.124;6.226;2022-12-15T00:56:06;100769.63;;;-7.36;100.00
76024;BME280;64719;52.124;6.226;2022-12-15T00:58:51;100783.63;;;-7.13;100.00
76024;BME280;64719;52.124;6.226;2022-12-15T01:01:36;100777.66;;;-7.37;100.00
76024;BME280;64719;52.124;6.226;2022-12-15T01:04:21;100779.44;;;-7.38;100.00
76024;BME280;64719;52.124;6.226;2022-12-15T01:07:05;100796.34;;;-7.40;100.00
76024;BME280;64719;52.124;6.226;2022-12-15T01:09:48;100791.66;;;-7.48;100.00
76024;BME280;64719;52.124;6.226;2022-12-15T01:12:32;100790.00;;;-7.49;100.00
76024;BME280;64719;52.124;6.226;2022-12-15T01:15:16;100795.00;;;-7.57;100.00
76024;BME280;64719;52.124;6.226;2022-12-15T01:18:02;100800.03;;;-7.54;100.00
76024;BME280;64719;52.124;6.226;2022-12-15T01:20:53;100805.25;;;-7.76;100.00
76024;BME280;64719;52.124;6.226;2022-12-15T01:23:20;100802.41;;;-7.62;100.00
76024;BME280;64719;52.124;6.226;2022-12-15T01:25:49;100798.22;;;-7.76;100.00
76024;BME280;64719;52.124;6.226;2022-12-15T01:28:15;100802.75;;;-7.78;100.00
76024;BME280;64719;52.124;6.226;2022-12-15T01:30:42;100803.72;;;-7.79;100.00
76024;BME280;64719;52.124;6.226;2022-12-15T01:33:10;100804.81;;;-7.70;100.00
76024;BME280;64719;52.124;6.226;2022-12-15T01:35:37;100804.13;;;-7.61;100.00
76024;BME280;64719;52.124;6.226;2022-12-15T01:38:04;100800.78;;;-7.52;100.00
76024;BME280;64719;52.124;6.226;2022-12-15T01:40:30;100802.19;;;-7.70;100.00
76024;BME280;64719;52.124;6.226;2022-12-15T01:43:16;100817.59;;;-7.77;100.00
76024;BME280;64719;52.124;6.226;2022-12-15T01:45:55;100819.88;;;-7.72;100.00
76024;BME280;64719;52.124;6.226;2022-12-15T01:48:26;100821.34;;;-7.57;100.00
76024;BME280;64719;52.124;6.226;2022-12-15T01:51:00;100822.31;;;-7.47;100.00
76024;BME280;64719;52.124;6.226;2022-12-15T01:53:32;100823.03;;;-7.56;100.00
76024;BME280;64719;52.124;6.226;2022-12-15T01:56:01;100829.81;;;-7.76;100.00
76024;BME280;64719;52.124;6.226;2022-12-15T01:58:29;100828.84;;;-7.75;100.00
76024;BME280;64719;52.124;6.226;2022-12-15T02:00:56;100834.34;;;-7.78;100.00
76024;BME280;64719;52.124;6.226;2022-12-15T02:03:24;100826.44;;;-7.89;100.00
76024;BME280;64719;52.124;6.226;2022-12-15T02:05:51;100832.50;;;-7.88;100.00
76024;BME280;64719;52.124;6.226;2022-12-15T02:08:18;100834.66;;;-7.93;100.00
76024;BME280;64719;52.124;6.226;2022-12-15T02:10:58;100830.69;;;-7.99;100.00
76024;BME280;64719;52.124;6.226;2022-12-15T02:13:33;100824.38;;;-7.85;99.99
76024;BME280;64719;52.124;6.226;2022-12-15T02:16:07;100827.00;;;-7.96;100.00
76024;BME280;64719;52.124;6.226;2022-12-15T02:18:44;100832.16;;;-7.95;99.80
76024;BME280;64719;52.124;6.226;2022-12-15T02:21:17;100828.63;;;-8.06;100.00
76024;BME280;64719;52.124;6.226;2022-12-15T02:24:18;100824.84;;;-8.02;100.00
76024;BME280;64719;52.124;6.226;2022-12-15T02:27:19;100823.19;;;-7.92;100.00
76024;BME280;64719;52.124;6.226;2022-12-15T02:30:12;100832.91;;;-7.82;100.00
76024;BME280;64719;52.124;6.226;2022-12-15T02:32:47;100829.19;;;-7.90;100.00
76024;BME280;64719;52.124;6.226;2022-12-15T02:35:21;100831.22;;;-7.83;100.00
76024;BME280;64719;52.124;6.226;2022-12-15T02:37:50;100826.31;;;-7.87;100.00
76024;BME280;64719;52.124;6.226;2022-12-15T02:40:16;100830.44;;;-7.96;100.00
76024;BME280;64719;52.124;6.226;2022-12-15T02:42:45;100825.81;;;-7.92;100.00
76024;BME280;64719;52.124;6.226;2022-12-15T02:45:15;100824.94;;;-8.04;99.76
76024;BME280;64719;52.124;6.226;2022-12-15T02:47:52;100827.47;;;-8.02;99.83
76024;BME280;64719;52.124;6.226;2022-12-15T02:50:41;100823.91;;;-7.90;100.00
76024;BME280;64719;52.124;6.226;2022-12-15T02:53:19;100831.34;;;-7.84;100.00
76024;BME280;64719;52.124;6.226;2022-12-15T02:55:56;100832.63;;;-8.01;100.00
76024;BME280;64719;52.124;6.226;2022-12-15T02:58:31;100832.50;;;-7.99;99.97
76024;BME280;64719;52.124;6.226;2022-12-15T03:01:06;100820.72;;;-8.06;100.00
76024;BME280;64719;52.124;6.226;2022-12-15T03:03:36;100835.47;;;-8.04;100.00
76024;BME280;64719;52.124;6.226;2022-12-15T03:06:04;100834.41;;;-8.01;100.00
76024;BME280;64719;52.124;6.226;2022-12-15T03:08:31;100842.06;;;-7.98;100.00
76024;BME280;64719;52.124;6.226;2022-12-15T03:10:57;100840.50;;;-8.01;100.00
76024;BME280;64719;52.124;6.226;2022-12-15T03:13:24;100850.00;;;-8.11;99.96
76024;BME280;64719;52.124;6.226;2022-12-15T03:15:51;100839.19;;;-7.95;100.00
76024;BME280;64719;52.124;6.226;2022-12-15T03:18:20;100844.19;;;-8.03;100.00
76024;BME280;64719;52.124;6.226;2022-12-15T03:20:46;100849.09;;;-8.10;99.83
76024;BME280;64719;52.124;6.226;2022-12-15T03:23:13;100842.56;;;-8.17;99.66
76024;BME280;64719;52.124;6.226;2022-12-15T03:25:39;100850.34;;;-8.15;99.23
76024;BME280;64719;52.124;6.226;2022-12-15T03:28:06;100857.78;;;-8.20;99.51
76024;BME280;64719;52.124;6.226;2022-12-15T03:30:32;100861.34;;;-8.21;99.69
76024;BME280;64719;52.124;6.226;2022-12-15T03:32:59;100863.00;;;-8.31;99.57
76024;BME280;64719;52.124;6.226;2022-12-15T03:35:27;100859.44;;;-8.19;99.81
76024;BME280;64719;52.124;6.226;2022-12-15T03:37:53;100864.13;;;-8.23;99.43
76024;BME280;64719;52.124;6.226;2022-12-15T03:40:20;100859.81;;;-8.24;99.46
76024;BME280;64719;52.124;6.226;2022-12-15T03:42:46;100862.59;;;-8.14;100.00
76024;BME280;64719;52.124;6.226;2022-12-15T03:45:13;100869.84;;;-8.18;100.00
76024;BME280;64719;52.124;6.226;2022-12-15T03:47:40;100872.72;;;-8.21;99.93
76024;BME280;64719;52.124;6.226;2022-12-15T03:50:08;100865.00;;;-8.35;99.80
76024;BME280;64719;52.124;6.226;2022-12-15T03:52:36;100865.69;;;-8.09;100.00
76024;BME280;64719;52.124;6.226;2022-12-15T03:55:04;100864.31;;;-8.02;99.89
76024;BME280;64719;52.124;6.226;2022-12-15T03:57:32;100867.84;;;-8.14;99.93
76024;BME280;64719;52.124;6.226;2022-12-15T03:59:59;100869.41;;;-8.12;100.00
76024;BME280;64719;52.124;6.226;2022-12-15T04:02:25;100870.56;;;-8.27;99.56
76024;BME280;64719;52.124;6.226;2022-12-15T04:04:52;100875.41;;;-8.33;99.81
76024;BME280;64719;52.124;6.226;2022-12-15T04:07:18;100875.28;;;-8.08;99.91
76024;BME280;64719;52.124;6.226;2022-12-15T04:09:46;100871.06;;;-8.11;99.92
76024;BME280;64719;52.124;6.226;2022-12-15T04:12:13;100876.28;;;-7.98;100.00
76024;BME280;64719;52.124;6.226;2022-12-15T04:14:39;100871.59;;;-8.06;99.85
76024;BME280;64719;52.124;6.226;2022-12-15T04:17:07;100864.94;;;-7.88;100.00
76024;BME280;64719;52.124;6.226;2022-12-15T04:19:34;100875.19;;;-8.07;99.35
76024;BME280;64719;52.124;6.226;2022-12-15T04:22:18;100885.75;;;-8.19;99.71
76024;BME280;64719;52.124;6.226;2022-12-15T04:24:44;100879.53;;;-8.29;99.61
76024;BME280;64719;52.124;6.226;2022-12-15T04:27:30;100887.09;;;-8.25;99.14
76024;BME280;64719;52.124;6.226;2022-12-15T04:30:14;100884.78;;;-8.18;99.68
76024;BME280;64719;52.124;6.226;2022-12-15T04:32:59;100890.13;;;-8.07;99.66
76024;BME280;64719;52.124;6.226;2022-12-15T04:35:44;100888.91;;;-8.14;99.60
76024;BME280;64719;52.124;6.226;2022-12-15T04:38:28;100885.63;;;-8.18;99.56
76024;BME280;64719;52.124;6.226;2022-12-15T04:41:13;100880.97;;;-8.25;99.81
76024;BME280;64719;52.124;6.226;2022-12-15T04:43:59;100877.50;;;-8.26;99.69
76024;BME280;64719;52.124;6.226;2022-12-15T04:46:43;100882.63;;;-8.24;99.43
76024;BME280;64719;52.124;6.226;2022-12-15T04:49:26;100880.44;;;-8.07;99.84
76024;BME280;64719;52.124;6.226;2022-12-15T04:52:10;100873.06;;;-8.25;99.39
76024;BME280;64719;52.124;6.226;2022-12-15T04:54:54;100880.03;;;-8.13;99.88
76024;BME280;64719;52.124;6.226;2022-12-15T04:57:38;100879.31;;;-8.15;99.55
76024;BME280;64719;52.124;6.226;2022-12-15T05:00:23;100885.19;;;-8.12;99.67
76024;BME280;64719;52.124;6.226;2022-12-15T05:03:07;100888.13;;;-7.93;100.00
76024;BME280;64719;52.124;6.226;2022-12-15T05:05:52;100887.53;;;-7.96;100.00
76024;BME280;64719;52.124;6.226;2022-12-15T05:08:36;100886.22;;;-8.25;99.51
76024;BME280;64719;52.124;6.226;2022-12-15T05:11:20;100888.47;;;-8.32;100.00
76024;BME280;64719;52.124;6.226;2022-12-15T05:14:04;100883.19;;;-8.32;99.99
76024;BME280;64719;52.124;6.226;2022-12-15T05:16:50;100888.75;;;-8.24;99.65
76024;BME280;64719;52.124;6.226;2022-12-15T05:19:34;100893.06;;;-8.23;100.00
76024;BME280;64719;52.124;6.226;2022-12-15T05:22:18;100894.97;;;-8.25;99.61
76024;BME280;64719;52.124;6.226;2022-12-15T05:25:02;100895.13;;;-8.39;99.57
76024;BME280;64719;52.124;6.226;2022-12-15T05:27:46;100892.34;;;-8.25;100.00
76024;BME280;64719;52.124;6.226;2022-12-15T05:30:30;100896.53;;;-8.22;99.83
76024;BME280;64719;52.124;6.226;2022-12-15T05:33:15;100901.38;;;-8.29;99.68
76024;BME280;64719;52.124;6.226;2022-12-15T05:35:42;100889.81;;;-8.26;100.00
76024;BME280;64719;52.124;6.226;2022-12-15T05:38:08;100896.16;;;-8.18;99.79
76024;BME280;64719;52.124;6.226;2022-12-15T05:40:35;100900.91;;;-8.34;99.57
76024;BME280;64719;52.124;6.226;2022-12-15T05:43:01;100911.09;;;-8.29;100.00
76024;BME280;64719;52.124;6.226;2022-12-15T05:45:28;100905.38;;;-8.23;99.84
76024;BME280;64719;52.124;6.226;2022-12-15T05:47:55;100905.38;;;-8.23;99.55
76024;BME280;64719;52.124;6.226;2022-12-15T05:50:22;100907.31;;;-8.14;99.86
76024;BME280;64719;52.124;6.226;2022-12-15T05:52:49;100908.47;;;-8.18;99.85
76024;BME280;64719;52.124;6.226;2022-12-15T05:55:16;100915.31;;;-8.16;100.00
76024;BME280;64719;52.124;6.226;2022-12-15T05:57:43;100917.84;;;-8.14;99.82
76024;BME280;64719;52.124;6.226;2022-12-15T06:00:10;100915.44;;;-8.17;99.89
76024;BME280;64719;52.124;6.226;2022-12-15T06:02:36;100921.06;;;-8.11;100.00
76024;BME280;64719;52.124;6.226;2022-12-15T06:05:03;100933.63;;;-8.14;100.00
76024;BME280;64719;52.124;6.226;2022-12-15T06:07:32;100941.34;;;-8.00;99.60
76024;BME280;64719;52.124;6.226;2022-12-15T06:09:59;100938.75;;;-8.24;99.61
76024;BME280;64719;52.124;6.226;2022-12-15T06:12:25;100936.06;;;-8.00;99.93
76024;BME280;64719;52.124;6.226;2022-12-15T06:14:52;100941.69;;;-7.81;100.00
76024;BME280;64719;52.124;6.226;2022-12-15T06:17:18;100936.56;;;-7.72;100.00
76024;BME280;64719;52.124;6.226;2022-12-15T06:19:45;100942.28;;;-7.78;99.84
76024;BME280;64719;52.124;6.226;2022-12-15T06:22:11;100948.50;;;-7.79;99.70
76024;BME280;64719;52.124;6.226;2022-12-15T06:24:39;100947.41;;;-7.87;100.00
76024;BME280;64719;52.124;6.226;2022-12-15T06:27:06;100947.97;;;-7.95;99.89
76024;BME280;64719;52.124;6.226;2022-12-15T06:29:33;100955.19;;;-7.86;100.00
76024;BME280;64719;52.124;6.226;2022-12-15T06:31:59;100947.53;;;-7.89;99.65
76024;BME280;64719;52.124;6.226;2022-12-15T06:34:26;100956.56;;;-7.93;99.95
76024;BME280;64719;52.124;6.226;2022-12-15T06:36:53;100964.34;;;-7.91;100.00
76024;BME280;64719;52.124;6.226;2022-12-15T06:39:19;100957.97;;;-8.00;100.00
76024;BME280;64719;52.124;6.226;2022-12-15T06:41:47;100960.22;;;-8.06;100.00
76024;BME280;64719;52.124;6.226;2022-12-15T06:44:14;100953.69;;;-8.01;100.00
76024;BME280;64719;52.124;6.226;2022-12-15T06:46:41;100950.81;;;-7.98;99.85
76024;BME280;64719;52.124;6.226;2022-12-15T06:49:09;100959.06;;;-8.02;99.88
76024;BME280;64719;52.124;6.226;2022-12-15T06:51:36;100964.09;;;-7.99;100.00
76024;BME280;64719;52.124;6.226;2022-12-15T06:54:03;100948.63;;;-8.04;99.88
76024;BME280;64719;52.124;6.226;2022-12-15T06:59:04;100974.91;;;-7.68;99.67
76024;BME280;64719;52.124;6.226;2022-12-15T07:01:32;100972.88;;;-7.88;99.89
76024;BME280;64719;52.124;6.226;2022-12-15T07:03:59;100979.78;;;-7.98;99.49
76024;BME280;64719;52.124;6.226;2022-12-15T07:06:27;100988.44;;;-8.08;99.59
76024;BME280;64719;52.124;6.226;2022-12-15T07:08:58;100985.63;;;-7.94;99.90
76024;BME280;64719;52.124;6.226;2022-12-15T07:11:24;100986.31;;;-8.03;99.91
76024;BME280;64719;52.124;6.226;2022-12-15T07:13:52;100981.88;;;-8.03;99.89
76024;BME280;64719;52.124;6.226;2022-12-15T07:16:21;100977.25;;;-7.99;99.92
76024;BME280;64719;52.124;6.226;2022-12-15T07:18:49;100976.81;;;-7.93;99.36
76024;BME280;64719;52.124;6.226;2022-12-15T07:21:16;100973.72;;;-7.87;99.72
76024;BME280;64719;52.124;6.226;2022-12-15T07:23:42;100972.53;;;-7.83;99.36
76024;BME280;64719;52.124;6.226;2022-12-15T07:26:09;100971.91;;;-7.87;99.45
76024;BME280;64719;52.124;6.226;2022-12-15T07:28:36;100982.63;;;-7.77;99.31
76024;BME280;64719;52.124;6.226;2022-12-15T07:31:05;100984.03;;;-7.61;99.59
76024;BME280;64719;52.124;6.226;2022-12-15T07:33:34;100993.75;;;-7.50;99.74
76024;BME280;64719;52.124;6.226;2022-12-15T07:36:00;101001.91;;;-7.53;99.57
76024;BME280;64719;52.124;6.226;2022-12-15T07:38:28;101007.34;;;-7.43;99.49
76024;BME280;64719;52.124;6.226;2022-12-15T07:40:58;101010.03;;;-7.21;99.48
76024;BME280;64719;52.124;6.226;2022-12-15T07:43:26;101005.09;;;-7.26;99.34
76024;BME280;64719;52.124;6.226;2022-12-15T07:45:53;101003.84;;;-7.20;99.41
76024;BME280;64719;52.124;6.226;2022-12-15T07:48:20;100997.19;;;-7.37;99.15
76024;BME280;64719;52.124;6.226;2022-12-15T07:50:49;101009.78;;;-7.29;98.84
76024;BME280;64719;52.124;6.226;2022-12-15T07:53:16;101008.81;;;-7.28;98.46
76024;BME280;64719;52.124;6.226;2022-12-15T07:55:43;101004.88;;;-7.23;98.91
76024;BME280;64719;52.124;6.226;2022-12-15T07:58:10;101003.09;;;-7.22;99.20
76024;BME280;64719;52.124;6.226;2022-12-15T08:00:37;101007.28;;;-7.20;98.99
76024;BME280;64719;52.124;6.226;2022-12-15T08:03:03;101004.56;;;-7.07;99.36
76024;BME280;64719;52.124;6.226;2022-12-15T08:05:30;101023.41;;;-7.01;98.36
76024;BME280;64719;52.124;6.226;2022-12-15T08:07:58;101034.66;;;-6.99;98.54
76024;BME280;64719;52.124;6.226;2022-12-15T08:10:24;101033.38;;;-6.93;98.83
76024;BME280;64719;52.124;6.226;2022-12-15T08:12:52;101035.78;;;-6.79;98.30
76024;BME280;64719;52.124;6.226;2022-12-15T08:15:20;101036.06;;;-6.71;98.22
76024;BME280;64719;52.124;6.226;2022-12-15T08:17:46;101038.94;;;-6.52;98.06
76024;BME280;64719;52.124;6.226;2022-12-15T08:20:13;101035.13;;;-6.48;98.08
76024;BME280;64719;52.124;6.226;2022-12-15T08:22:40;101035.59;;;-6.32;97.89
76024;BME280;64719;52.124;6.226;2022-12-15T08:25:08;101036.81;;;-6.25;97.61
76024;BME280;64719;52.124;6.226;2022-12-15T08:27:35;101039.22;;;-6.22;97.43
76024;BME280;64719;52.124;6.226;2022-12-15T08:30:02;101046.06;;;-6.20;96.95
76024;BME280;64719;52.124;6.226;2022-12-15T08:32:28;101049.19;;;-6.15;97.49
76024;BME280;64719;52.124;6.226;2022-12-15T08:34:55;101041.59;;;-6.08;97.18
76024;BME280;64719;52.124;6.226;2022-12-15T08:37:21;101055.78;;;-5.98;96.97
76024;BME280;64719;52.124;6.226;2022-12-15T08:39:48;101059.13;;;-5.96;96.26
76024;BME280;64719;52.124;6.226;2022-12-15T08:42:16;101051.91;;;-5.94;96.50
76024;BME280;64719;52.124;6.226;2022-12-15T08:44:42;101044.72;;;-5.92;96.27
76024;BME280;64719;52.124;6.226;2022-12-15T08:47:09;101046.50;;;-5.82;96.63
76024;BME280;64719;52.124;6.226;2022-12-15T08:49:35;101047.53;;;-5.73;96.33
76024;BME280;64719;52.124;6.226;2022-12-15T08:52:02;101056.88;;;-5.69;96.51
76024;BME280;64719;52.124;6.226;2022-12-15T08:54:28;101052.44;;;-5.69;95.98
76024;BME280;64719;52.124;6.226;2022-12-15T08:56:56;101045.44;;;-5.58;96.47
76024;BME280;64719;52.124;6.226;2022-12-15T08:59:24;101047.34;;;-5.49;95.66
76024;BME280;64719;52.124;6.226;2022-12-15T09:01:51;101050.84;;;-5.49;96.31
76024;BME280;64719;52.124;6.226;2022-12-15T09:04:18;101050.47;;;-5.44;96.13
76024;BME280;64719;52.124;6.226;2022-12-15T09:06:44;101050.81;;;-5.38;96.19
76024;BME280;64719;52.124;6.226;2022-12-15T09:09:11;101058.94;;;-5.30;95.99
76024;BME280;64719;52.124;6.226;2022-12-15T09:11:38;101053.88;;;-5.22;96.00
76024;BME280;64719;52.124;6.226;2022-12-15T09:14:06;101058.03;;;-5.19;95.17
76024;BME280;64719;52.124;6.226;2022-12-15T09:16:34;101055.75;;;-5.13;95.33
76024;BME280;64719;52.124;6.226;2022-12-15T09:19:00;101058.72;;;-5.06;95.65
76024;BME280;64719;52.124;6.226;2022-12-15T09:21:28;101062.41;;;-4.98;95.52
76024;BME280;64719;52.124;6.226;2022-12-15T09:23:58;101060.22;;;-4.93;95.65
76024;BME280;64719;52.124;6.226;2022-12-15T09:26:27;101058.88;;;-4.87;95.34
76024;BME280;64719;52.124;6.226;2022-12-15T09:28:53;101065.34;;;-4.80;95.48
76024;BME280;64719;52.124;6.226;2022-12-15T09:31:22;101067.34;;;-4.73;95.20
76024;BME280;64719;52.124;6.226;2022-12-15T09:33:52;101070.56;;;-4.69;95.13
76024;BME280;64719;52.124;6.226;2022-12-15T09:36:20;101063.53;;;-4.59;94.95
76024;BME280;64719;52.124;6.226;2022-12-15T09:38:47;101077.06;;;-4.53;95.20
76024;BME280;64719;52.124;6.226;2022-12-15T09:41:20;101086.31;;;-4.47;94.74
76024;BME280;64719;52.124;6.226;2022-12-15T09:43:52;101087.94;;;-4.35;94.95
76024;BME280;64719;52.124;6.226;2022-12-15T09:46:26;101097.88;;;-4.28;94.86
76024;BME280;64719;52.124;6.226;2022-12-15T09:49:01;101094.56;;;-4.20;95.09
76024;BME280;64719;52.124;6.226;2022-12-15T09:51:32;101093.00;;;-3.93;94.42
76024;BME280;64719;52.124;6.226;2022-12-15T09:54:02;101087.28;;;-1.51;92.91
76024;BME280;64719;52.124;6.226;2022-12-15T09:56:36;101091.72;;;1.85;84.52
76024;BME280;64719;52.124;6.226;2022-12-15T09:59:15;101090.47;;;3.42;76.41
76024;BME280;64719;52.124;6.226;2022-12-15T10:01:51;101094.13;;;4.59;74.50
76024;BME280;64719;52.124;6.226;2022-12-15T10:04:30;101097.94;;;5.00;74.42
76024;BME280;64719;52.124;6.226;2022-12-15T10:07:03;101092.78;;;5.20;71.64
76024;BME280;64719;52.124;6.226;2022-12-15T10:09:31;101094.69;;;5.40;68.51
76024;BME280;64719;52.124;6.226;2022-12-15T10:11:59;101093.72;;;5.76;69.21
76024;BME280;64719;52.124;6.226;2022-12-15T10:14:30;101079.31;;;6.38;67.25
76024;BME280;64719;52.124;6.226;2022-12-15T10:17:03;101081.47;;;6.56;60.22
76024;BME280;64719;52.124;6.226;2022-12-15T10:19:35;101076.72;;;5.05;67.98
76024;BME280;64719;52.124;6.226;2022-12-15T10:22:03;101083.13;;;5.25;68.61
76024;BME280;64719;52.124;6.226;2022-12-15T10:24:31;101074.56;;;2.19;67.58
76024;BME280;64719;52.124;6.226;2022-12-15T10:27:06;101074.66;;;1.06;77.16
76024;BME280;64719;52.124;6.226;2022-12-15T10:29:43;101079.09;;;0.74;76.70
76024;BME280;64719;52.124;6.226;2022-12-15T10:32:16;101084.19;;;0.51;78.00
76024;BME280;64719;52.124;6.226;2022-12-15T10:34:44;101082.53;;;-0.35;81.37
76024;BME280;64719;52.124;6.226;2022-12-15T10:37:13;101094.19;;;-0.79;83.05
76024;BME280;64719;52.124;6.226;2022-12-15T10:39:43;101086.88;;;-1.12;84.74
76024;BME280;64719;52.124;6.226;2022-12-15T10:42:13;101091.59;;;-1.50;85.67
76024;BME280;64719;52.124;6.226;2022-12-15T10:44:42;101092.47;;;-1.59;86.53
76024;BME280;64719;52.124;6.226;2022-12-15T10:47:10;101096.88;;;-1.68;86.99
76024;BME280;64719;52.124;6.226;2022-12-15T10:49:40;101096.91;;;-1.77;87.52
76024;BME280;64719;52.124;6.226;2022-12-15T10:52:15;101102.53;;;-1.80;87.87
76024;BME280;64719;52.124;6.226;2022-12-15T10:54:46;101098.22;;;-1.91;88.59
76024;BME280;64719;52.124;6.226;2022-12-15T10:57:15;101106.69;;;-1.78;88.92
76024;BME280;64719;52.124;6.226;2022-12-15T10:59:42;101102.66;;;-1.82;89.40
76024;BME280;64719;52.124;6.226;2022-12-15T11:02:28;101098.13;;;-1.72;88.91
76024;BME280;64719;52.124;6.226;2022-12-15T11:04:58;101100.59;;;-1.34;88.57
76024;BME280;64719;52.124;6.226;2022-12-15T11:07:37;101094.50;;;-0.82;86.71
76024;BME280;64719;52.124;6.226;2022-12-15T11:10:15;101097.47;;;-0.85;86.16
76024;BME280;64719;52.124;6.226;2022-12-15T11:12:43;101096.28;;;-1.17;86.97
76024;BME280;64719;52.124;6.226;2022-12-15T11:15:31;101104.47;;;-1.01;87.47
76024;BME280;64719;52.124;6.226;2022-12-15T11:18:01;101099.50;;;-0.96;87.70
76024;BME280;64719;52.124;6.226;2022-12-15T11:20:34;101104.97;;;-0.98;88.09
76024;BME280;64719;52.124;6.226;2022-12-15T11:23:10;101101.56;;;-1.08;88.33
76024;BME280;64719;52.124;6.226;2022-12-15T11:25:42;101088.66;;;-1.03;88.54
76024;BME280;64719;52.124;6.226;2022-12-15T11:28:14;101095.78;;;-1.03;88.42
76024;BME280;64719;52.124;6.226;2022-12-15T11:30:44;101101.72;;;-1.09;88.71
76024;BME280;64719;52.124;6.226;2022-12-15T11:33:13;101097.00;;;-0.98;88.72
76024;BME280;64719;52.124;6.226;2022-12-15T11:35:54;101094.28;;;-1.06;89.27
76024;BME280;64719;52.124;6.226;2022-12-15T11:38:31;101099.91;;;-1.09;89.16
76024;BME280;64719;52.124;6.226;2022-12-15T11:41:05;101103.88;;;-0.95;89.35
76024;BME280;64719;52.124;6.226;2022-12-15T11:43:51;101110.47;;;-0.99;89.06
76024;BME280;64719;52.124;6.226;2022-12-15T11:46:23;101110.59;;;-1.01;89.75
76024;BME280;64719;52.124;6.226;2022-12-15T11:49:12;101095.56;;;-0.92;89.90
76024;BME280;64719;52.124;6.226;2022-12-15T11:51:49;101093.81;;;-0.84;89.15
76024;BME280;64719;52.124;6.226;2022-12-15T11:54:24;101094.41;;;-0.90;89.74
76024;BME280;64719;52.124;6.226;2022-12-15T11:56:57;101093.88;;;-0.76;89.96
76024;BME280;64719;52.124;6.226;2022-12-15T11:59:42;101088.91;;;-0.71;89.75
76024;BME280;64719;52.124;6.226;2022-12-15T12:02:35;101084.41;;;-0.53;90.00
76024;BME280;64719;52.124;6.226;2022-12-15T12:05:34;101094.00;;;0.09;88.18
76024;BME280;64719;52.124;6.226;2022-12-15T12:08:12;101089.91;;;0.64;86.78
76024;BME280;64719;52.124;6.226;2022-12-15T12:10:49;101092.41;;;0.66;85.35
76024;BME280;64719;52.124;6.226;2022-12-15T12:13:24;101097.41;;;1.34;83.56
76024;BME280;64719;52.124;6.226;2022-12-15T12:15:59;101095.22;;;1.70;82.12
76024;BME280;64719;52.124;6.226;2022-12-15T12:18:33;101088.00;;;1.86;80.82
76024;BME280;64719;52.124;6.226;2022-12-15T12:21:04;101092.22;;;1.81;81.43
76024;BME280;64719;52.124;6.226;2022-12-15T12:23:35;101092.16;;;2.60;79.56
76024;BME280;64719;52.124;6.226;2022-12-15T12:26:11;101084.03;;;1.58;80.68
76024;BME280;64719;52.124;6.226;2022-12-15T12:28:44;101079.03;;;1.55;81.71
76024;BME280;64719;52.124;6.226;2022-12-15T12:31:18;101072.69;;;1.32;81.84
76024;BME280;64719;52.124;6.226;2022-12-15T12:33:48;101075.50;;;1.07;83.56
76024;BME280;64719;52.124;6.226;2022-12-15T12:36:16;101072.34;;;0.54;84.56
76024;BME280;64719;52.124;6.226;2022-12-15T12:38:51;101071.72;;;0.18;86.37
76024;BME280;64719;52.124;6.226;2022-12-15T12:41:25;101071.41;;;0.21;87.15
76024;BME280;64719;52.124;6.226;2022-12-15T12:43:59;101073.53;;;0.51;86.31
76024;BME280;64719;52.124;6.226;2022-12-15T12:46:32;101067.59;;;0.81;85.51
76024;BME280;64719;52.124;6.226;2022-12-15T12:49:05;101064.91;;;0.73;84.90
76024;BME280;64719;52.124;6.226;2022-12-15T12:51:34;101069.72;;;0.70;85.76
76024;BME280;64719;52.124;6.226;2022-12-15T12:54:38;101067.53;;;0.65;86.09
76024;BME280;64719;52.124;6.226;2022-12-15T12:59:39;101062.81;;;0.43;86.00
76024;BME280;64719;52.124;6.226;2022-12-15T13:02:44;101059.28;;;0.35;85.96
76024;BME280;64719;52.124;6.226;2022-12-15T13:05:26;101066.16;;;0.53;86.24
76024;BME280;64719;52.124;6.226;2022-12-15T13:07:54;101061.94;;;0.84;85.07
76024;BME280;64719;52.124;6.226;2022-12-15T13:10:23;101059.13;;;1.02;84.89
76024;BME280;64719;52.124;6.226;2022-12-15T13:12:50;101060.63;;;0.96;84.20
76024;BME280;64719;52.124;6.226;2022-12-15T13:15:30;101047.41;;;1.03;85.10
76024;BME280;64719;52.124;6.226;2022-12-15T13:18:05;101045.59;;;1.03;84.67
76024;BME280;64719;52.124;6.226;2022-12-15T13:20:33;101045.06;;;0.84;85.82
76024;BME280;64719;52.124;6.226;2022-12-15T13:26:14;101037.63;;;0.46;87.20